الصفحة الرئيسية
METAR-TAF:

METAR-TAF

مطار :

أوداته-نوشيرو, اليابان

دائرة عرض: 40-11N, خط طول: 140-12E, ارتفاع: 84 متر

مراقبة الطقس الحالي

تاريخ ووقت الإصدار 1ساعة و 5 دقيقة قبل الساعة 06:00UTC
ريح 4 عقدة من الجنوب الغربي, الاتجاه يتراوح بين الجنوب/الجنوب الشرقي و الغرب/الشمال الغربي
درجة الحرارة 29°درجة مئوية
الرطوبة 70%
ضغط 1013 hPa
الرؤية 10 كم أو أكثر
غيوم قليلة على ارتفاع 3000 قدم
غيوم متفرقة على ارتفاع 4000 قدم
غيوم مفككة

METAR: RJSR 160600Z 23004KT 160V290 9999 FEW030 SCT040 BKN/// 29/23 Q1013

زمن: 16:05 (07:05 UTC)


TAF: مفقودة

أرصاد الطقس والتوقعات من أكثر من 4000 مطار (تقارير الطقس للمطار METAR والتنبؤ بالطقس بالمطارTAF).

المحطات المتاحة هي النقط الصفراء والحمراء على الخريطة.

حرك المؤشر فوق النقطة لمعرفة اسم المحطة.

ثم انقر لمعرفة أرصاد وتوقعات الطقس.

لتغيير الخارطة: اضغط على الأزرار الخضراء مع رمز الصليب الأسود للتكبير. على الزر الأخضر مع شرطة للتصغير، أو على الأسهم الخضراء للخرائط المجاورة.


METAR-TAF: